sensor_id;sensor_type;location;lat;lon;timestamp;pressure;altitude;pressure_sealevel;temperature;humidity
16664;BME280;8445;51.270;9.434;2023-05-22T00:00:49;99241.72;;;27.93;31.53
16664;BME280;8445;51.270;9.434;2023-05-22T00:03:17;99241.44;;;27.83;31.49
16664;BME280;8445;51.270;9.434;2023-05-22T00:05:44;99246.78;;;27.90;31.32
16664;BME280;8445;51.270;9.434;2023-05-22T00:08:13;99256.81;;;27.89;31.73
16664;BME280;8445;51.270;9.434;2023-05-22T00:10:38;99251.38;;;27.89;31.68
16664;BME280;8445;51.270;9.434;2023-05-22T00:13:07;99245.63;;;27.98;31.49
16664;BME280;8445;51.270;9.434;2023-05-22T00:15:32;99244.22;;;28.07;31.46
16664;BME280;8445;51.270;9.434;2023-05-22T00:17:58;99241.00;;;28.10;31.78
16664;BME280;8445;51.270;9.434;2023-05-22T00:20:28;99249.34;;;28.15;31.61
16664;BME280;8445;51.270;9.434;2023-05-22T00:22:56;99241.03;;;28.22;31.61
16664;BME280;8445;51.270;9.434;2023-05-22T00:25:25;99241.16;;;28.27;31.51
16664;BME280;8445;51.270;9.434;2023-05-22T00:27:53;99237.97;;;28.18;32.04
16664;BME280;8445;51.270;9.434;2023-05-22T00:30:19;99238.19;;;28.05;31.58
16664;BME280;8445;51.270;9.434;2023-05-22T00:32:46;99245.47;;;27.92;31.90
16664;BME280;8445;51.270;9.434;2023-05-22T00:35:15;99246.75;;;27.78;31.97
16664;BME280;8445;51.270;9.434;2023-05-22T00:37:40;99235.16;;;27.71;32.45
16664;BME280;8445;51.270;9.434;2023-05-22T00:40:13;99235.16;;;27.59;32.15
16664;BME280;8445;51.270;9.434;2023-05-22T00:42:42;99235.00;;;27.54;32.36
16664;BME280;8445;51.270;9.434;2023-05-22T00:45:10;99230.44;;;27.66;32.13
16664;BME280;8445;51.270;9.434;2023-05-22T00:47:35;99234.81;;;27.67;32.06
16664;BME280;8445;51.270;9.434;2023-05-22T00:50:02;99234.00;;;27.66;32.14
16664;BME280;8445;51.270;9.434;2023-05-22T00:52:27;99233.88;;;27.61;32.03
16664;BME280;8445;51.270;9.434;2023-05-22T00:54:54;99239.16;;;27.56;31.89
16664;BME280;8445;51.270;9.434;2023-05-22T00:57:21;99228.06;;;27.58;32.24
16664;BME280;8445;51.270;9.434;2023-05-22T00:59:49;99237.50;;;27.55;32.57
16664;BME280;8445;51.270;9.434;2023-05-22T01:02:15;99234.31;;;27.58;32.38
16664;BME280;8445;51.270;9.434;2023-05-22T01:04:49;99231.75;;;27.63;33.93
16664;BME280;8445;51.270;9.434;2023-05-22T01:07:15;99242.22;;;27.48;32.67
16664;BME280;8445;51.270;9.434;2023-05-22T01:09:51;99234.19;;;27.53;32.68
16664;BME280;8445;51.270;9.434;2023-05-22T01:20:40;99227.00;;;27.40;33.66
16664;BME280;8445;51.270;9.434;2023-05-22T01:29:17;99234.78;;;27.25;33.49
16664;BME280;8445;51.270;9.434;2023-05-22T01:31:49;99233.91;;;27.12;32.97
16664;BME280;8445;51.270;9.434;2023-05-22T01:34:16;99234.00;;;27.05;33.10
16664;BME280;8445;51.270;9.434;2023-05-22T01:36:44;99221.94;;;27.01;33.20
16664;BME280;8445;51.270;9.434;2023-05-22T01:39:24;99218.75;;;27.04;33.09
16664;BME280;8445;51.270;9.434;2023-05-22T01:41:51;99229.16;;;27.07;32.95
16664;BME280;8445;51.270;9.434;2023-05-22T01:44:16;99227.97;;;27.03;32.87
16664;BME280;8445;51.270;9.434;2023-05-22T01:46:44;99219.22;;;27.01;33.10
16664;BME280;8445;51.270;9.434;2023-05-22T01:49:09;99220.03;;;27.02;33.11
16664;BME280;8445;51.270;9.434;2023-05-22T01:51:51;99216.91;;;27.17;33.79
16664;BME280;8445;51.270;9.434;2023-05-22T01:54:45;99210.09;;;27.26;34.56
16664;BME280;8445;51.270;9.434;2023-05-22T01:57:27;99210.63;;;27.04;33.66
16664;BME280;8445;51.270;9.434;2023-05-22T02:00:02;99216.81;;;26.93;33.69
16664;BME280;8445;51.270;9.434;2023-05-22T02:02:45;99213.19;;;26.81;33.22
16664;BME280;8445;51.270;9.434;2023-05-22T02:05:12;99212.88;;;26.70;33.40
16664;BME280;8445;51.270;9.434;2023-05-22T02:07:44;99211.22;;;26.69;33.15
16664;BME280;8445;51.270;9.434;2023-05-22T02:10:11;99207.94;;;26.48;33.45
16664;BME280;8445;51.270;9.434;2023-05-22T02:12:38;99210.03;;;26.46;33.31
16664;BME280;8445;51.270;9.434;2023-05-22T02:15:04;99206.94;;;26.43;33.63
16664;BME280;8445;51.270;9.434;2023-05-22T02:17:38;99210.66;;;26.23;34.38
16664;BME280;8445;51.270;9.434;2023-05-22T02:20:12;99209.94;;;26.34;34.01
16664;BME280;8445;51.270;9.434;2023-05-22T02:22:41;99208.06;;;26.35;33.80
16664;BME280;8445;51.270;9.434;2023-05-22T02:25:09;99212.88;;;26.33;33.77
16664;BME280;8445;51.270;9.434;2023-05-22T02:27:48;99204.50;;;26.34;34.53
16664;BME280;8445;51.270;9.434;2023-05-22T02:30:18;99209.69;;;26.17;33.76
16664;BME280;8445;51.270;9.434;2023-05-22T02:32:47;99209.25;;;26.21;33.70
16664;BME280;8445;51.270;9.434;2023-05-22T02:35:15;99208.03;;;26.16;34.05
16664;BME280;8445;51.270;9.434;2023-05-22T02:37:41;99210.53;;;26.11;34.07
16664;BME280;8445;51.270;9.434;2023-05-22T02:40:07;99203.66;;;26.15;34.02
16664;BME280;8445;51.270;9.434;2023-05-22T02:42:34;99199.63;;;26.25;33.51
16664;BME280;8445;51.270;9.434;2023-05-22T02:45:00;99204.94;;;26.31;33.40
16664;BME280;8445;51.270;9.434;2023-05-22T02:47:26;99204.06;;;26.38;33.46
16664;BME280;8445;51.270;9.434;2023-05-22T02:49:54;99212.28;;;26.31;33.59
16664;BME280;8445;51.270;9.434;2023-05-22T02:52:22;99204.13;;;26.31;33.34
16664;BME280;8445;51.270;9.434;2023-05-22T02:54:51;99201.28;;;26.26;33.35
16664;BME280;8445;51.270;9.434;2023-05-22T02:57:17;99190.63;;;26.24;33.33
16664;BME280;8445;51.270;9.434;2023-05-22T02:59:42;99202.84;;;26.33;33.32
16664;BME280;8445;51.270;9.434;2023-05-22T03:02:08;99193.75;;;26.28;33.24
16664;BME280;8445;51.270;9.434;2023-05-22T03:04:34;99189.38;;;26.27;33.66
16664;BME280;8445;51.270;9.434;2023-05-22T03:07:05;99189.22;;;26.22;33.50
16664;BME280;8445;51.270;9.434;2023-05-22T03:09:31;99192.97;;;26.21;33.34
16664;BME280;8445;51.270;9.434;2023-05-22T03:11:57;99190.53;;;26.12;33.39
16664;BME280;8445;51.270;9.434;2023-05-22T03:14:22;99188.59;;;26.19;33.32
16664;BME280;8445;51.270;9.434;2023-05-22T03:16:48;99189.06;;;26.16;33.44
16664;BME280;8445;51.270;9.434;2023-05-22T03:19:14;99196.28;;;26.23;33.66
16664;BME280;8445;51.270;9.434;2023-05-22T03:21:40;99189.97;;;26.29;33.06
16664;BME280;8445;51.270;9.434;2023-05-22T03:24:08;99192.25;;;26.32;33.27
16664;BME280;8445;51.270;9.434;2023-05-22T03:26:35;99187.44;;;26.34;33.32
16664;BME280;8445;51.270;9.434;2023-05-22T03:29:06;99182.91;;;26.28;33.67
16664;BME280;8445;51.270;9.434;2023-05-22T03:31:37;99186.66;;;26.27;33.60
16664;BME280;8445;51.270;9.434;2023-05-22T03:34:07;99186.66;;;26.27;33.34
16664;BME280;8445;51.270;9.434;2023-05-22T03:36:35;99187.72;;;26.26;33.32
16664;BME280;8445;51.270;9.434;2023-05-22T03:39:02;99189.22;;;26.22;33.55
16664;BME280;8445;51.270;9.434;2023-05-22T03:41:29;99180.91;;;26.16;33.57
16664;BME280;8445;51.270;9.434;2023-05-22T03:43:57;99188.59;;;26.19;33.53
16664;BME280;8445;51.270;9.434;2023-05-22T03:46:25;99193.28;;;26.31;33.73
16664;BME280;8445;51.270;9.434;2023-05-22T03:48:51;99179.19;;;26.41;33.47
16664;BME280;8445;51.270;9.434;2023-05-22T03:51:17;99179.75;;;26.49;33.73
16664;BME280;8445;51.270;9.434;2023-05-22T03:53:42;99185.91;;;26.57;33.58
16664;BME280;8445;51.270;9.434;2023-05-22T03:56:10;99184.38;;;26.61;33.53
16664;BME280;8445;51.270;9.434;2023-05-22T03:58:35;99184.09;;;26.69;33.74
16664;BME280;8445;51.270;9.434;2023-05-22T04:01:04;99181.97;;;26.71;33.80
16664;BME280;8445;51.270;9.434;2023-05-22T04:03:29;99184.38;;;26.79;33.66
16664;BME280;8445;51.270;9.434;2023-05-22T04:05:55;99179.28;;;26.90;33.58
16664;BME280;8445;51.270;9.434;2023-05-22T04:08:28;99181.22;;;27.01;34.15
16664;BME280;8445;51.270;9.434;2023-05-22T04:10:54;99186.44;;;27.15;33.35
16664;BME280;8445;51.270;9.434;2023-05-22T04:13:23;99182.88;;;27.33;33.69
16664;BME280;8445;51.270;9.434;2023-05-22T04:15:51;99184.22;;;27.54;33.38
16664;BME280;8445;51.270;9.434;2023-05-22T04:18:25;99183.91;;;27.74;33.56
16664;BME280;8445;51.270;9.434;2023-05-22T04:20:57;99188.88;;;27.89;33.31
16664;BME280;8445;51.270;9.434;2023-05-22T04:23:23;99194.56;;;28.00;33.32
16664;BME280;8445;51.270;9.434;2023-05-22T04:25:51;99190.53;;;28.02;33.47
16664;BME280;8445;51.270;9.434;2023-05-22T04:28:18;99191.97;;;28.05;33.63
16664;BME280;8445;51.270;9.434;2023-05-22T04:30:48;99196.66;;;28.09;33.50
16664;BME280;8445;51.270;9.434;2023-05-22T04:33:13;99196.34;;;28.18;33.84
16664;BME280;8445;51.270;9.434;2023-05-22T04:35:39;99198.97;;;28.24;33.67
16664;BME280;8445;51.270;9.434;2023-05-22T04:38:08;99205.56;;;28.29;33.94
16664;BME280;8445;51.270;9.434;2023-05-22T04:40:33;99207.91;;;28.37;33.66
16664;BME280;8445;51.270;9.434;2023-05-22T04:42:59;99204.59;;;28.35;33.95
16664;BME280;8445;51.270;9.434;2023-05-22T04:45:28;99206.38;;;28.41;34.52
16664;BME280;8445;51.270;9.434;2023-05-22T04:47:56;99211.34;;;28.44;34.04
16664;BME280;8445;51.270;9.434;2023-05-22T04:50:22;99212.53;;;28.48;33.98
16664;BME280;8445;51.270;9.434;2023-05-22T04:52:48;99212.84;;;28.64;34.08
16664;BME280;8445;51.270;9.434;2023-05-22T04:55:13;99209.06;;;28.77;34.53
16664;BME280;8445;51.270;9.434;2023-05-22T04:57:39;99211.25;;;28.92;34.49
16664;BME280;8445;51.270;9.434;2023-05-22T05:00:05;99209.50;;;28.85;34.66
16664;BME280;8445;51.270;9.434;2023-05-22T05:02:33;99204.16;;;28.91;34.90
16664;BME280;8445;51.270;9.434;2023-05-22T05:04:59;99208.94;;;29.12;35.19
16664;BME280;8445;51.270;9.434;2023-05-22T05:07:25;99212.63;;;29.35;35.14
16664;BME280;8445;51.270;9.434;2023-05-22T05:09:54;99204.91;;;29.61;34.66
16664;BME280;8445;51.270;9.434;2023-05-22T05:12:20;99215.75;;;29.90;34.73
16664;BME280;8445;51.270;9.434;2023-05-22T05:14:45;99221.59;;;30.16;34.28
16664;BME280;8445;51.270;9.434;2023-05-22T05:17:13;99205.03;;;30.40;34.46
16664;BME280;8445;51.270;9.434;2023-05-22T05:19:41;99205.94;;;30.68;33.99
16664;BME280;8445;51.270;9.434;2023-05-22T05:22:06;99208.25;;;30.76;33.80
16664;BME280;8445;51.270;9.434;2023-05-22T05:24:34;99210.22;;;30.81;33.89
16664;BME280;8445;51.270;9.434;2023-05-22T05:27:00;99207.56;;;30.86;34.35
16664;BME280;8445;51.270;9.434;2023-05-22T05:29:25;99203.09;;;31.02;33.97
16664;BME280;8445;51.270;9.434;2023-05-22T05:31:56;99207.66;;;31.18;34.30
16664;BME280;8445;51.270;9.434;2023-05-22T05:34:37;99211.63;;;31.33;33.90
16664;BME280;8445;51.270;9.434;2023-05-22T05:37:09;99214.53;;;31.54;33.89
16664;BME280;8445;51.270;9.434;2023-05-22T05:39:35;99213.16;;;31.78;33.59
16664;BME280;8445;51.270;9.434;2023-05-22T05:42:03;99219.19;;;31.86;33.84
16664;BME280;8445;51.270;9.434;2023-05-22T05:44:31;99215.19;;;31.93;33.87
16664;BME280;8445;51.270;9.434;2023-05-22T05:46:57;99220.47;;;32.11;34.22
16664;BME280;8445;51.270;9.434;2023-05-22T05:49:24;99222.47;;;32.26;34.40
16664;BME280;8445;51.270;9.434;2023-05-22T05:51:52;99226.13;;;32.31;34.05
16664;BME280;8445;51.270;9.434;2023-05-22T05:54:21;99217.78;;;32.16;34.39
16664;BME280;8445;51.270;9.434;2023-05-22T05:56:48;99226.00;;;32.16;34.38
16664;BME280;8445;51.270;9.434;2023-05-22T05:59:14;99222.69;;;32.14;34.53
16664;BME280;8445;51.270;9.434;2023-05-22T06:01:55;99231.72;;;32.14;34.54
16664;BME280;8445;51.270;9.434;2023-05-22T06:04:25;99227.44;;;31.91;34.98
16664;BME280;8445;51.270;9.434;2023-05-22T06:06:52;99227.72;;;32.27;34.83
16664;BME280;8445;51.270;9.434;2023-05-22T06:09:26;99227.91;;;32.63;34.17
16664;BME280;8445;51.270;9.434;2023-05-22T06:12:10;99230.81;;;32.89;33.89
16664;BME280;8445;51.270;9.434;2023-05-22T06:14:38;99233.56;;;33.05;33.75
16664;BME280;8445;51.270;9.434;2023-05-22T06:17:05;99225.38;;;33.15;33.72
16664;BME280;8445;51.270;9.434;2023-05-22T06:19:34;99233.09;;;33.29;33.76
16664;BME280;8445;51.270;9.434;2023-05-22T06:21:59;99234.41;;;33.05;33.82
16664;BME280;8445;51.270;9.434;2023-05-22T06:24:25;99233.63;;;33.31;33.58
16664;BME280;8445;51.270;9.434;2023-05-22T06:26:50;99233.66;;;33.36;33.69
16664;BME280;8445;51.270;9.434;2023-05-22T06:29:16;99226.53;;;33.35;33.46
16664;BME280;8445;51.270;9.434;2023-05-22T06:31:44;99230.59;;;33.32;33.70
16664;BME280;8445;51.270;9.434;2023-05-22T06:34:15;99239.09;;;33.20;33.48
16664;BME280;8445;51.270;9.434;2023-05-22T06:36:43;99232.00;;;33.35;33.24
16664;BME280;8445;51.270;9.434;2023-05-22T06:39:10;99230.66;;;33.43;32.91
16664;BME280;8445;51.270;9.434;2023-05-22T06:42:06;99229.31;;;33.55;32.96
16664;BME280;8445;51.270;9.434;2023-05-22T06:44:54;99233.69;;;33.77;32.84
16664;BME280;8445;51.270;9.434;2023-05-22T06:47:22;99232.34;;;34.00;32.93
16664;BME280;8445;51.270;9.434;2023-05-22T06:49:48;99225.19;;;34.10;32.55
16664;BME280;8445;51.270;9.434;2023-05-22T06:52:14;99229.25;;;34.28;32.20
16664;BME280;8445;51.270;9.434;2023-05-22T06:54:39;99231.75;;;34.35;32.09
16664;BME280;8445;51.270;9.434;2023-05-22T06:57:08;99223.22;;;34.47;32.19
16664;BME280;8445;51.270;9.434;2023-05-22T06:59:35;99228.09;;;34.65;32.06
16664;BME280;8445;51.270;9.434;2023-05-22T07:02:03;99238.19;;;34.85;31.83
16664;BME280;8445;51.270;9.434;2023-05-22T07:04:40;99226.06;;;34.86;31.87
16664;BME280;8445;51.270;9.434;2023-05-22T07:07:10;99232.41;;;34.77;32.06
16664;BME280;8445;51.270;9.434;2023-05-22T07:09:36;99230.91;;;34.44;32.88
16664;BME280;8445;51.270;9.434;2023-05-22T07:12:03;99236.25;;;34.81;32.54
16664;BME280;8445;51.270;9.434;2023-05-22T07:14:31;99238.44;;;34.84;32.09
16664;BME280;8445;51.270;9.434;2023-05-22T07:16:57;99230.06;;;35.20;32.30
16664;BME280;8445;51.270;9.434;2023-05-22T07:19:27;99235.22;;;35.27;31.65
16664;BME280;8445;51.270;9.434;2023-05-22T07:21:55;99235.97;;;35.38;31.83
16664;BME280;8445;51.270;9.434;2023-05-22T07:24:21;99230.91;;;35.55;31.62
16664;BME280;8445;51.270;9.434;2023-05-22T07:26:47;99238.56;;;35.64;32.03
16664;BME280;8445;51.270;9.434;2023-05-22T07:29:14;99244.06;;;35.64;31.80
16664;BME280;8445;51.270;9.434;2023-05-22T07:31:41;99235.19;;;35.72;31.68
16664;BME280;8445;51.270;9.434;2023-05-22T07:34:07;99237.56;;;35.84;31.84
16664;BME280;8445;51.270;9.434;2023-05-22T07:36:34;99231.25;;;35.83;31.61
16664;BME280;8445;51.270;9.434;2023-05-22T07:39:00;99236.59;;;36.04;31.59
16664;BME280;8445;51.270;9.434;2023-05-22T07:41:26;99239.47;;;35.88;32.05
16664;BME280;8445;51.270;9.434;2023-05-22T07:43:52;99232.56;;;36.20;31.59
16664;BME280;8445;51.270;9.434;2023-05-22T07:46:21;99227.75;;;36.31;31.83
16664;BME280;8445;51.270;9.434;2023-05-22T07:48:55;99235.72;;;36.62;31.39
16664;BME280;8445;51.270;9.434;2023-05-22T07:51:23;99237.78;;;36.95;31.41
16664;BME280;8445;51.270;9.434;2023-05-22T07:53:52;99238.47;;;37.25;31.10
16664;BME280;8445;51.270;9.434;2023-05-22T07:56:18;99234.69;;;37.59;30.79
16664;BME280;8445;51.270;9.434;2023-05-22T07:58:48;99241.78;;;37.99;30.55
16664;BME280;8445;51.270;9.434;2023-05-22T08:01:16;99242.56;;;37.99;30.78
16664;BME280;8445;51.270;9.434;2023-05-22T08:03:42;99235.47;;;38.12;30.71
16664;BME280;8445;51.270;9.434;2023-05-22T08:06:10;99241.59;;;38.37;30.79
16664;BME280;8445;51.270;9.434;2023-05-22T08:08:43;99242.56;;;38.74;29.76
16664;BME280;8445;51.270;9.434;2023-05-22T08:11:09;99241.00;;;39.10;30.65
16664;BME280;8445;51.270;9.434;2023-05-22T08:13:34;99241.34;;;39.31;30.55
16664;BME280;8445;51.270;9.434;2023-05-22T08:16:02;99241.44;;;39.26;30.22
16664;BME280;8445;51.270;9.434;2023-05-22T08:18:28;99243.69;;;39.61;29.74
16664;BME280;8445;51.270;9.434;2023-05-22T08:20:53;99239.72;;;39.76;29.69
16664;BME280;8445;51.270;9.434;2023-05-22T08:23:19;99234.97;;;39.90;29.86
16664;BME280;8445;51.270;9.434;2023-05-22T08:25:44;99235.66;;;40.05;29.38
16664;BME280;8445;51.270;9.434;2023-05-22T08:28:10;99229.41;;;39.90;29.35
16664;BME280;8445;51.270;9.434;2023-05-22T08:30:35;99229.50;;;40.08;29.46
16664;BME280;8445;51.270;9.434;2023-05-22T08:33:01;99226.34;;;40.23;29.05
16664;BME280;8445;51.270;9.434;2023-05-22T08:35:27;99232.47;;;40.20;28.95
16664;BME280;8445;51.270;9.434;2023-05-22T08:37:52;99220.28;;;40.21;28.99
16664;BME280;8445;51.270;9.434;2023-05-22T08:40:19;99224.13;;;40.43;28.64
16664;BME280;8445;51.270;9.434;2023-05-22T08:42:44;99225.53;;;40.72;28.49
16664;BME280;8445;51.270;9.434;2023-05-22T08:45:10;99220.34;;;40.79;28.66
16664;BME280;8445;51.270;9.434;2023-05-22T08:47:36;99220.66;;;40.86;28.55
16664;BME280;8445;51.270;9.434;2023-05-22T08:50:02;99222.69;;;41.12;28.62
16664;BME280;8445;51.270;9.434;2023-05-22T08:52:32;99224.16;;;41.18;28.61
16664;BME280;8445;51.270;9.434;2023-05-22T08:55:02;99213.38;;;41.26;28.45
16664;BME280;8445;51.270;9.434;2023-05-22T08:57:30;99207.97;;;41.73;28.20
16664;BME280;8445;51.270;9.434;2023-05-22T08:59:55;99212.22;;;41.62;28.26
16664;BME280;8445;51.270;9.434;2023-05-22T09:02:21;99210.09;;;41.59;28.47
16664;BME280;8445;51.270;9.434;2023-05-22T09:04:47;99208.72;;;41.83;28.24
16664;BME280;8445;51.270;9.434;2023-05-22T09:07:12;99211.06;;;42.28;27.92
16664;BME280;8445;51.270;9.434;2023-05-22T09:09:38;99215.38;;;42.47;27.62
16664;BME280;8445;51.270;9.434;2023-05-22T09:12:08;99219.31;;;42.76;27.18
16664;BME280;8445;51.270;9.434;2023-05-22T09:14:38;99220.16;;;42.98;26.40
16664;BME280;8445;51.270;9.434;2023-05-22T09:17:04;99206.31;;;43.10;26.65
16664;BME280;8445;51.270;9.434;2023-05-22T09:19:30;99209.16;;;43.22;26.77
16664;BME280;8445;51.270;9.434;2023-05-22T09:22:03;99215.53;;;43.02;26.56
16664;BME280;8445;51.270;9.434;2023-05-22T09:24:29;99207.91;;;42.69;26.73
16664;BME280;8445;51.270;9.434;2023-05-22T09:26:55;99211.44;;;42.78;26.85
16664;BME280;8445;51.270;9.434;2023-05-22T09:29:20;99207.34;;;42.75;26.85
16664;BME280;8445;51.270;9.434;2023-05-22T09:31:47;99202.34;;;42.69;26.79
16664;BME280;8445;51.270;9.434;2023-05-22T09:34:15;99200.78;;;42.59;26.62
16664;BME280;8445;51.270;9.434;2023-05-22T09:36:42;99203.75;;;42.15;26.95
16664;BME280;8445;51.270;9.434;2023-05-22T09:39:07;99197.63;;;41.83;27.09
16664;BME280;8445;51.270;9.434;2023-05-22T09:41:37;99197.09;;;41.98;26.49
16664;BME280;8445;51.270;9.434;2023-05-22T09:44:13;99194.16;;;42.03;25.01
16664;BME280;8445;51.270;9.434;2023-05-22T09:46:40;99190.41;;;41.90;26.36
16664;BME280;8445;51.270;9.434;2023-05-22T09:49:06;99196.47;;;41.84;26.64
16664;BME280;8445;51.270;9.434;2023-05-22T09:51:32;99196.28;;;41.89;26.48
16664;BME280;8445;51.270;9.434;2023-05-22T09:54:02;99193.22;;;41.82;25.66
16664;BME280;8445;51.270;9.434;2023-05-22T09:56:29;99194.25;;;41.59;26.33
16664;BME280;8445;51.270;9.434;2023-05-22T09:58:55;99192.97;;;41.57;26.15
16664;BME280;8445;51.270;9.434;2023-05-22T10:01:24;99195.56;;;41.62;26.55
16664;BME280;8445;51.270;9.434;2023-05-22T10:03:53;99184.13;;;41.72;26.14
16664;BME280;8445;51.270;9.434;2023-05-22T10:06:22;99191.97;;;41.44;26.09
16664;BME280;8445;51.270;9.434;2023-05-22T10:09:13;99183.63;;;41.53;24.54
16664;BME280;8445;51.270;9.434;2023-05-22T10:11:40;99184.78;;;41.52;25.59
16664;BME280;8445;51.270;9.434;2023-05-22T10:14:06;99185.44;;;41.66;25.47
16664;BME280;8445;51.270;9.434;2023-05-22T10:16:34;99185.25;;;41.54;25.17
16664;BME280;8445;51.270;9.434;2023-05-22T10:19:02;99176.78;;;41.59;24.92
16664;BME280;8445;51.270;9.434;2023-05-22T10:21:29;99185.25;;;41.62;24.85
16664;BME280;8445;51.270;9.434;2023-05-22T10:23:57;99181.00;;;41.74;24.50
16664;BME280;8445;51.270;9.434;2023-05-22T10:26:24;99177.59;;;41.68;24.39
16664;BME280;8445;51.270;9.434;2023-05-22T10:29:01;99170.50;;;41.88;23.38
16664;BME280;8445;51.270;9.434;2023-05-22T10:31:44;99176.81;;;41.24;22.91
16664;BME280;8445;51.270;9.434;2023-05-22T10:34:42;99173.19;;;40.70;24.58
16664;BME280;8445;51.270;9.434;2023-05-22T10:40:26;99165.38;;;40.99;23.50
16664;BME280;8445;51.270;9.434;2023-05-22T10:43:01;99158.03;;;40.85;23.52
16664;BME280;8445;51.270;9.434;2023-05-22T10:45:28;99161.16;;;40.84;24.63
16664;BME280;8445;51.270;9.434;2023-05-22T10:48:04;99157.38;;;41.06;24.57
16664;BME280;8445;51.270;9.434;2023-05-22T10:50:30;99159.19;;;41.11;24.68
16664;BME280;8445;51.270;9.434;2023-05-22T10:53:22;99156.53;;;41.67;22.70
16664;BME280;8445;51.270;9.434;2023-05-22T10:55:49;99155.38;;;41.51;24.36
16664;BME280;8445;51.270;9.434;2023-05-22T10:58:16;99157.22;;;41.20;24.51
16664;BME280;8445;51.270;9.434;2023-05-22T11:00:42;99155.09;;;41.26;24.58
16664;BME280;8445;51.270;9.434;2023-05-22T11:03:08;99148.19;;;41.49;24.29
16664;BME280;8445;51.270;9.434;2023-05-22T11:05:35;99149.03;;;41.59;24.40
16664;BME280;8445;51.270;9.434;2023-05-22T11:10:55;99140.53;;;41.46;24.17
16664;BME280;8445;51.270;9.434;2023-05-22T11:13:25;99136.72;;;41.77;23.77
16664;BME280;8445;51.270;9.434;2023-05-22T11:15:50;99137.81;;;41.85;23.91
16664;BME280;8445;51.270;9.434;2023-05-22T11:18:18;99140.03;;;42.10;23.88
16664;BME280;8445;51.270;9.434;2023-05-22T11:20:45;99139.41;;;42.04;24.09
16664;BME280;8445;51.270;9.434;2023-05-22T11:23:11;99134.88;;;42.29;23.75
16664;BME280;8445;51.270;9.434;2023-05-22T11:25:39;99126.63;;;42.42;23.59
16664;BME280;8445;51.270;9.434;2023-05-22T11:28:05;99125.06;;;42.53;23.65
16664;BME280;8445;51.270;9.434;2023-05-22T11:30:32;99121.59;;;42.77;23.56
16664;BME280;8445;51.270;9.434;2023-05-22T11:32:59;99112.47;;;42.77;23.56
16664;BME280;8445;51.270;9.434;2023-05-22T11:35:25;99121.50;;;42.74;23.51
16664;BME280;8445;51.270;9.434;2023-05-22T11:37:52;99115.38;;;42.59;22.81
16664;BME280;8445;51.270;9.434;2023-05-22T11:40:20;99117.81;;;42.10;23.88
16664;BME280;8445;51.270;9.434;2023-05-22T11:42:46;99115.91;;;41.36;24.10
16664;BME280;8445;51.270;9.434;2023-05-22T11:45:13;99109.56;;;41.09;24.10
16664;BME280;8445;51.270;9.434;2023-05-22T11:47:39;99106.91;;;41.57;24.02
16664;BME280;8445;51.270;9.434;2023-05-22T11:50:07;99103.00;;;41.88;23.49
16664;BME280;8445;51.270;9.434;2023-05-22T11:52:34;99105.91;;;41.61;23.43
16664;BME280;8445;51.270;9.434;2023-05-22T11:55:47;99093.03;;;41.57;23.66
16664;BME280;8445;51.270;9.434;2023-05-22T11:58:13;99095.97;;;41.99;23.22
16664;BME280;8445;51.270;9.434;2023-05-22T12:00:42;99095.59;;;42.40;22.71
16664;BME280;8445;51.270;9.434;2023-05-22T12:03:20;99095.16;;;41.90;23.30
16664;BME280;8445;51.270;9.434;2023-05-22T12:11:10;99086.22;;;42.65;22.96
16664;BME280;8445;51.270;9.434;2023-05-22T12:16:40;99075.88;;;52.54;22.33
16664;BME280;8445;51.270;9.434;2023-05-22T12:19:10;99082.22;;;52.43;21.62
16664;BME280;8445;51.270;9.434;2023-05-22T12:21:44;99079.88;;;51.99;22.46
16664;BME280;8445;51.270;9.434;2023-05-22T12:24:12;99079.66;;;52.04;22.58
16664;BME280;8445;51.270;9.434;2023-05-22T12:28:01;99084.56;;;43.07;22.42
16664;BME280;8445;51.270;9.434;2023-05-22T12:30:39;99067.59;;;43.00;22.08
16664;BME280;8445;51.270;9.434;2023-05-22T12:33:11;99073.91;;;43.09;21.58
16664;BME280;8445;51.270;9.434;2023-05-22T12:35:37;99063.78;;;43.25;22.48
16664;BME280;8445;51.270;9.434;2023-05-22T12:38:02;99065.91;;;43.53;22.52
16664;BME280;8445;51.270;9.434;2023-05-22T12:40:28;99072.16;;;43.38;22.38
16664;BME280;8445;51.270;9.434;2023-05-22T12:42:53;99065.94;;;43.66;22.25
16664;BME280;8445;51.270;9.434;2023-05-22T12:45:19;99063.41;;;44.10;22.14
16664;BME280;8445;51.270;9.434;2023-05-22T12:47:44;99060.28;;;44.40;22.08
16664;BME280;8445;51.270;9.434;2023-05-22T12:50:10;99056.22;;;44.50;21.94
16664;BME280;8445;51.270;9.434;2023-05-22T12:52:35;99058.22;;;44.50;21.71
16664;BME280;8445;51.270;9.434;2023-05-22T12:55:01;99057.56;;;44.03;22.19
16664;BME280;8445;51.270;9.434;2023-05-22T12:57:26;99054.19;;;43.97;22.10
16664;BME280;8445;51.270;9.434;2023-05-22T12:59:52;99047.16;;;43.17;21.95
16664;BME280;8445;51.270;9.434;2023-05-22T13:02:17;99054.50;;;43.34;22.12
16664;BME280;8445;51.270;9.434;2023-05-22T13:04:43;99060.19;;;43.50;22.04
16664;BME280;8445;51.270;9.434;2023-05-22T13:07:08;99063.59;;;43.56;21.99
16664;BME280;8445;51.270;9.434;2023-05-22T13:09:33;99059.44;;;43.16;22.17
16664;BME280;8445;51.270;9.434;2023-05-22T13:11:59;99064.75;;;43.08;22.31
16664;BME280;8445;51.270;9.434;2023-05-22T13:14:26;99064.59;;;43.05;22.18
16664;BME280;8445;51.270;9.434;2023-05-22T13:16:53;99062.50;;;43.02;22.20
16664;BME280;8445;51.270;9.434;2023-05-22T13:19:22;99066.03;;;43.11;22.07
16664;BME280;8445;51.270;9.434;2023-05-22T13:21:50;99069.44;;;43.29;21.94
16664;BME280;8445;51.270;9.434;2023-05-22T13:24:15;99067.16;;;43.44;21.84
16664;BME280;8445;51.270;9.434;2023-05-22T13:26:41;99072.84;;;43.60;21.98
16664;BME280;8445;51.270;9.434;2023-05-22T13:29:06;99081.22;;;43.47;21.85
16664;BME280;8445;51.270;9.434;2023-05-22T13:31:32;99072.06;;;43.59;21.67
16664;BME280;8445;51.270;9.434;2023-05-22T13:34:01;99073.59;;;43.69;21.60
16664;BME280;8445;51.270;9.434;2023-05-22T13:36:27;99069.06;;;43.89;21.35
16664;BME280;8445;51.270;9.434;2023-05-22T13:38:52;99063.59;;;44.05;21.35
16664;BME280;8445;51.270;9.434;2023-05-22T13:41:18;99062.69;;;44.13;21.53
16664;BME280;8445;51.270;9.434;2023-05-22T13:43:43;99051.41;;;43.97;21.43
16664;BME280;8445;51.270;9.434;2023-05-22T13:46:10;99053.63;;;43.79;21.47